createdAt,value
2022-10-11T00:01:05.520Z,50.40
2022-10-11T00:03:35.431Z,47.45
2022-10-11T00:06:06.279Z,47.95
2022-10-11T00:08:35.133Z,54.13
2022-10-11T00:11:07.090Z,60.08
2022-10-11T00:13:36.329Z,46.17
2022-10-11T00:16:09.508Z,44.88
2022-10-11T00:18:40.486Z,49.08
2022-10-11T00:21:11.889Z,47.78
2022-10-11T00:23:40.621Z,51.40
2022-10-11T00:26:11.712Z,63.80
2022-10-11T00:28:41.105Z,60.30
2022-10-11T00:31:11.422Z,61.90
2022-10-11T00:33:41.522Z,47.08
2022-10-11T00:36:13.869Z,46.53
2022-10-11T00:38:42.332Z,44.92
2022-10-11T00:41:10.816Z,52.22
2022-10-11T00:43:39.890Z,56.03
2022-10-11T00:46:31.000Z,66.10
2022-10-11T00:49:22.715Z,52.20
2022-10-11T00:52:08.379Z,48.38
2022-10-11T00:54:52.387Z,52.20
2022-10-11T00:57:36.485Z,42.28
2022-10-11T01:00:18.883Z,41.60
2022-10-11T01:03:02.485Z,39.20
2022-10-11T01:06:00.161Z,41.30
2022-10-11T01:08:42.169Z,48.33
2022-10-11T01:11:28.670Z,46.38
2022-10-11T01:14:26.874Z,41.92
2022-10-11T01:17:15.128Z,48.60
2022-10-11T01:20:08.340Z,39.58
2022-10-11T01:23:00.495Z,41.33
2022-10-11T01:25:47.749Z,36.03
2022-10-11T01:28:42.651Z,39.05
2022-10-11T01:31:27.245Z,42.55
2022-10-11T01:34:11.941Z,37.95
2022-10-11T01:36:55.337Z,44.63
2022-10-11T01:39:39.749Z,40.03
2022-10-11T01:42:22.291Z,42.55
2022-10-11T01:45:05.782Z,49.72
2022-10-11T01:47:48.879Z,40.85
2022-10-11T01:50:43.546Z,36.35
2022-10-11T01:54:00.400Z,35.67
2022-10-11T01:57:00.524Z,37.95
2022-10-11T01:59:54.796Z,47.10
2022-10-11T02:02:51.561Z,36.47
2022-10-11T02:05:40.315Z,29.63
2022-10-11T02:08:31.383Z,38.88
2022-10-11T02:11:20.426Z,44.10
2022-10-11T02:14:11.101Z,35.45
2022-10-11T02:16:56.365Z,33.30
2022-10-11T02:19:44.296Z,44.58
2022-10-11T02:22:31.719Z,33.90
2022-10-11T02:25:21.289Z,29.15
2022-10-11T02:28:10.609Z,33.40
2022-10-11T02:30:56.002Z,29.58
2022-10-11T02:33:41.919Z,36.05
2022-10-11T02:36:31.612Z,29.42
2022-10-11T02:39:16.570Z,29.15
2022-10-11T02:42:03.672Z,33.40
2022-10-11T02:44:59.732Z,27.40
2022-10-11T02:47:44.456Z,29.40
2022-10-11T02:50:27.889Z,32.05
2022-10-11T02:53:10.747Z,32.47
2022-10-11T02:55:54.416Z,41.13
2022-10-11T02:58:38.233Z,27.27
2022-10-11T03:01:21.112Z,34.67
2022-10-11T03:04:04.088Z,33.67
2022-10-11T03:06:47.056Z,32.95
2022-10-11T03:09:30.062Z,25.38
2022-10-11T03:12:11.070Z,27.50
2022-10-11T03:14:53.245Z,27.45
2022-10-11T03:17:37.189Z,25.35
2022-10-11T03:20:20.863Z,29.85
2022-10-11T03:23:03.505Z,24.63
2022-10-11T03:25:47.882Z,20.10
2022-10-11T03:28:31.207Z,19.88
2022-10-11T03:31:14.182Z,21.85
2022-10-11T03:33:55.254Z,24.25
2022-10-11T03:36:38.647Z,19.95
2022-10-11T03:39:19.627Z,18.33
2022-10-11T03:42:01.426Z,19.65
2022-10-11T03:44:44.352Z,19.83
2022-10-11T03:47:27.419Z,18.88
2022-10-11T03:50:11.036Z,20.80
2022-10-11T03:52:55.119Z,17.80
2022-10-11T03:55:39.566Z,23.48
2022-10-11T03:58:23.520Z,14.52
2022-10-11T04:01:07.220Z,20.35
2022-10-11T04:03:49.071Z,12.55
2022-10-11T04:06:32.160Z,18.08
2022-10-11T04:09:14.687Z,17.70
2022-10-11T04:11:57.741Z,17.38
2022-10-11T04:14:40.754Z,23.50
2022-10-11T04:17:22.113Z,21.67
2022-10-11T04:20:05.836Z,15.10
2022-10-11T04:22:49.751Z,15.45
2022-10-11T04:25:30.794Z,13.77
2022-10-11T04:28:14.246Z,17.17
2022-10-11T04:30:57.643Z,16.33
2022-10-11T04:33:39.929Z,20.25
2022-10-11T04:36:23.226Z,16.30
2022-10-11T04:39:06.618Z,21.13
2022-10-11T04:41:49.263Z,18.02
2022-10-11T04:44:31.643Z,18.52
2022-10-11T04:47:15.379Z,13.15
2022-10-11T04:49:57.944Z,12.23
2022-10-11T04:52:41.341Z,15.25
2022-10-11T04:55:22.231Z,14.38
2022-10-11T04:58:05.672Z,17.17
2022-10-11T05:04:04.941Z,18.40
2022-10-11T05:06:46.227Z,16.88
2022-10-11T05:09:29.860Z,12.77
2022-10-11T05:12:12.632Z,13.68
2022-10-11T05:14:53.744Z,12.00
2022-10-11T05:17:37.087Z,10.75
2022-10-11T05:20:20.410Z,11.90
2022-10-11T05:23:03.309Z,11.82
2022-10-11T05:25:46.373Z,16.80
2022-10-11T05:28:29.542Z,14.32
2022-10-11T05:31:12.963Z,15.50
2022-10-11T05:33:57.034Z,13.10
2022-10-11T05:36:40.005Z,13.90
2022-10-11T05:39:23.054Z,12.90
2022-10-11T05:42:09.730Z,13.02
2022-10-11T05:44:53.776Z,12.52
2022-10-11T05:47:34.679Z,13.88
2022-10-11T05:50:19.653Z,15.48
2022-10-11T05:53:04.697Z,10.15
2022-10-11T05:55:47.399Z,9.43
2022-10-11T05:58:30.288Z,10.20
2022-10-11T06:01:16.900Z,13.30
2022-10-11T06:03:59.447Z,15.05
2022-10-11T06:06:40.654Z,14.40
2022-10-11T06:09:24.262Z,11.38
2022-10-11T06:12:07.708Z,9.88
2022-10-11T06:15:18.494Z,10.80
2022-10-11T06:18:13.926Z,12.50
2022-10-11T06:21:13.249Z,13.18
2022-10-11T06:24:12.465Z,11.75
2022-10-11T06:27:18.293Z,10.45
2022-10-11T06:30:24.748Z,11.02
2022-10-11T06:33:22.678Z,11.85
2022-10-11T06:36:20.307Z,11.13
2022-10-11T06:39:14.747Z,11.15
2022-10-11T06:42:14.792Z,13.07
2022-10-11T06:45:20.500Z,13.20
2022-10-11T06:48:20.425Z,17.40
2022-10-11T06:51:28.799Z,11.00
2022-10-11T06:54:09.146Z,14.52
2022-10-11T06:56:51.028Z,13.73
2022-10-11T06:59:50.885Z,14.32
2022-10-11T07:03:03.735Z,14.75
2022-10-11T07:06:03.055Z,15.02
2022-10-11T07:09:04.282Z,25.52
2022-10-11T07:12:00.997Z,19.20
2022-10-11T07:14:58.518Z,21.48
2022-10-11T07:17:59.331Z,12.70
2022-10-11T07:21:04.490Z,9.88
2022-10-11T07:24:10.898Z,17.70
2022-10-11T07:27:10.104Z,14.80
2022-10-11T07:30:21.410Z,7.88
2022-10-11T07:33:25.255Z,8.90
2022-10-11T07:36:20.546Z,12.30
2022-10-11T07:39:23.557Z,7.03
2022-10-11T07:42:51.823Z,11.82
2022-10-11T07:45:54.556Z,9.80
2022-10-11T07:48:50.277Z,9.05
2022-10-11T07:51:50.861Z,9.90
2022-10-11T07:54:51.488Z,11.35
2022-10-11T07:57:57.987Z,12.13
2022-10-11T08:00:56.344Z,8.98
2022-10-11T08:03:56.998Z,9.45
2022-10-11T08:06:53.691Z,13.35
2022-10-11T08:09:56.931Z,22.60
2022-10-11T08:12:57.707Z,27.45
2022-10-11T08:15:55.213Z,29.45
2022-10-11T08:18:57.248Z,28.20
2022-10-11T08:21:55.024Z,27.02
2022-10-11T08:24:52.403Z,30.90
2022-10-11T08:27:52.798Z,30.33
2022-10-11T08:30:51.582Z,21.05
2022-10-11T08:33:56.692Z,30.20
2022-10-11T08:37:11.369Z,25.75
2022-10-11T08:40:17.397Z,32.33
2022-10-11T08:43:34.020Z,40.17
2022-10-11T08:46:38.156Z,35.42
2022-10-11T08:49:38.494Z,32.80
2022-10-11T08:52:44.036Z,30.35
2022-10-11T08:55:45.996Z,24.85
2022-10-11T08:58:18.747Z,25.65
2022-10-11T09:00:49.962Z,24.13
2022-10-11T09:03:28.507Z,22.90
2022-10-11T09:06:09.968Z,23.08
2022-10-11T09:08:56.693Z,24.13
2022-10-11T09:11:37.636Z,20.15
2022-10-11T09:14:26.289Z,20.70
2022-10-11T09:17:04.664Z,20.50
2022-10-11T09:19:54.119Z,19.98
2022-10-11T09:22:30.864Z,19.35
2022-10-11T09:25:19.575Z,18.00
2022-10-11T09:28:02.974Z,16.17
2022-10-11T09:30:33.282Z,14.98
2022-10-11T09:33:12.108Z,17.63
2022-10-11T09:35:44.191Z,14.30
2022-10-11T09:38:22.633Z,11.40
2022-10-11T09:41:02.799Z,11.60
2022-10-11T09:43:32.889Z,16.23
2022-10-11T09:46:01.409Z,13.55
2022-10-11T09:48:38.616Z,10.65
2022-10-11T09:51:14.344Z,13.20
2022-10-11T09:53:55.173Z,15.93
2022-10-11T09:56:25.056Z,13.38
2022-10-11T09:59:17.776Z,13.70
2022-10-11T10:01:46.437Z,12.30
2022-10-11T10:04:18.391Z,11.50
2022-10-11T10:06:47.060Z,15.75
2022-10-11T10:09:30.257Z,13.15
2022-10-11T10:11:59.407Z,15.98
2022-10-11T10:14:31.626Z,18.38
2022-10-11T10:17:03.939Z,11.50
2022-10-11T10:19:44.907Z,9.40
2022-10-11T10:22:20.337Z,13.13
2022-10-11T10:24:50.606Z,10.55
2022-10-11T10:27:24.868Z,14.02
2022-10-11T10:30:17.163Z,8.75
2022-10-11T10:32:54.571Z,8.77
2022-10-11T10:35:34.161Z,11.55
2022-10-11T10:38:13.447Z,10.05
2022-10-11T10:40:46.455Z,12.35
2022-10-11T10:43:17.569Z,8.43
2022-10-11T10:46:03.896Z,12.98
2022-10-11T10:49:12.045Z,6.32
2022-10-11T10:51:40.690Z,9.93
2022-10-11T10:54:18.937Z,7.15
2022-10-11T10:56:53.673Z,12.13
2022-10-11T10:59:48.631Z,29.67
2022-10-11T11:02:39.756Z,19.40
2022-10-11T11:05:18.984Z,7.32
2022-10-11T11:07:52.030Z,14.13
2022-10-11T11:10:24.276Z,7.93
2022-10-11T11:13:06.538Z,4.82
2022-10-11T11:15:42.018Z,3.22
2022-10-11T11:18:28.663Z,4.47
2022-10-11T11:21:14.080Z,6.65
2022-10-11T11:23:50.389Z,5.80
2022-10-11T11:26:26.637Z,3.65
2022-10-11T11:29:18.816Z,2.75
2022-10-11T11:32:07.636Z,3.15
2022-10-11T11:34:42.889Z,3.17
2022-10-11T11:37:23.593Z,6.18
2022-10-11T11:39:57.116Z,5.38
2022-10-11T11:42:31.313Z,8.70
2022-10-11T11:45:06.775Z,4.15
2022-10-11T11:47:39.336Z,3.33
2022-10-11T11:50:22.787Z,4.03
2022-10-11T11:52:54.071Z,7.35
2022-10-11T11:55:30.990Z,7.38
2022-10-11T11:58:10.233Z,6.20
2022-10-11T12:00:50.296Z,4.35
2022-10-11T12:03:22.703Z,5.57
2022-10-11T12:06:24.308Z,4.03
2022-10-11T12:09:03.732Z,4.03
2022-10-11T12:11:43.352Z,4.05
2022-10-11T12:14:37.054Z,2.95
2022-10-11T12:17:15.856Z,5.95
2022-10-11T12:20:00.770Z,5.57
2022-10-11T12:22:53.108Z,7.63
2022-10-11T12:26:08.398Z,5.65
2022-10-11T12:29:00.993Z,3.80
2022-10-11T12:31:32.498Z,4.68
2022-10-11T12:34:35.759Z,5.47
2022-10-11T12:37:37.883Z,4.88
2022-10-11T12:40:35.215Z,5.00
2022-10-11T12:43:36.280Z,2.88
2022-10-11T12:46:49.114Z,3.03
2022-10-11T12:49:41.668Z,5.05
2022-10-11T12:52:25.516Z,3.00
2022-10-11T12:55:07.757Z,3.03
2022-10-11T12:58:10.010Z,7.22
2022-10-11T13:00:46.825Z,5.85
2022-10-11T13:03:32.642Z,2.22
2022-10-11T13:06:02.139Z,6.18
2022-10-11T13:08:33.887Z,3.53
2022-10-11T13:11:04.571Z,5.47
2022-10-11T13:13:40.106Z,3.00
2022-10-11T13:16:13.940Z,2.72
2022-10-11T13:18:44.916Z,3.00
2022-10-11T13:21:23.005Z,4.85
2022-10-11T13:23:59.836Z,2.88
2022-10-11T13:26:30.132Z,8.55
2022-10-11T13:29:06.284Z,3.00
2022-10-11T13:31:34.746Z,5.82
2022-10-11T13:34:03.250Z,6.97
2022-10-11T13:36:32.954Z,4.22
2022-10-11T13:39:02.357Z,4.15
2022-10-11T13:41:35.072Z,3.28
2022-10-11T13:44:05.495Z,8.23
2022-10-11T13:46:35.405Z,6.85
2022-10-11T13:49:06.735Z,6.35
2022-10-11T13:51:38.065Z,7.18
2022-10-11T13:54:13.115Z,8.73
2022-10-11T13:56:48.158Z,5.72
2022-10-11T13:59:21.260Z,5.38
2022-10-11T14:01:53.010Z,4.00
2022-10-11T14:04:24.055Z,4.68
2022-10-11T14:06:59.241Z,6.25
2022-10-11T14:09:30.295Z,5.82
2022-10-11T14:12:29.842Z,4.70
2022-10-11T14:15:00.462Z,5.10
2022-10-11T14:17:41.390Z,3.80
2022-10-11T14:20:18.990Z,5.30
2022-10-11T14:22:47.536Z,5.60
2022-10-11T14:25:16.144Z,5.03
2022-10-11T14:27:46.143Z,7.97
2022-10-11T14:30:27.474Z,6.30
2022-10-11T14:32:59.039Z,6.68
2022-10-11T14:35:32.209Z,8.32
2022-10-11T14:38:00.783Z,3.28
2022-10-11T14:40:31.629Z,7.63
2022-10-11T14:43:00.488Z,7.28
2022-10-11T14:45:30.356Z,3.00
2022-10-11T14:47:59.187Z,10.10
2022-10-11T14:50:36.715Z,7.75
2022-10-11T14:53:06.265Z,6.07
2022-10-11T14:55:35.755Z,4.95
2022-10-11T14:58:04.473Z,6.07
2022-10-11T15:00:35.239Z,13.25
2022-10-11T15:03:04.982Z,6.57
2022-10-11T15:05:34.374Z,8.45
2022-10-11T15:08:03.569Z,8.00
2022-10-11T15:10:36.513Z,7.88
2022-10-11T15:13:07.157Z,9.43
2022-10-11T15:15:41.095Z,9.00
2022-10-11T15:18:13.386Z,11.13
2022-10-11T15:20:44.597Z,12.68
2022-10-11T15:23:13.160Z,5.70
2022-10-11T15:25:42.556Z,6.57
2022-10-11T15:28:21.357Z,5.88
2022-10-11T15:30:51.222Z,9.13
2022-10-11T15:33:19.663Z,9.00
2022-10-11T15:35:48.252Z,8.73
2022-10-11T15:38:19.694Z,12.40
2022-10-11T15:40:49.537Z,7.35
2022-10-11T15:43:24.219Z,5.28
2022-10-11T15:45:55.065Z,5.38
2022-10-11T15:48:26.510Z,7.50
2022-10-11T15:50:55.745Z,10.45
2022-10-11T15:53:26.307Z,12.75
2022-10-11T15:55:56.234Z,9.75
2022-10-11T15:58:26.468Z,8.77
2022-10-11T16:00:58.673Z,9.85
2022-10-11T16:03:30.507Z,7.80
2022-10-11T16:06:04.901Z,12.15
2022-10-11T16:08:33.988Z,15.73
2022-10-11T16:11:02.870Z,15.00
2022-10-11T16:13:31.542Z,17.25
2022-10-11T16:16:02.289Z,13.57
2022-10-11T16:18:35.091Z,17.45
2022-10-11T16:21:07.758Z,14.95
2022-10-11T16:23:36.703Z,13.95
2022-10-11T16:26:08.133Z,14.77
2022-10-11T16:28:37.908Z,10.60
2022-10-11T16:31:13.248Z,11.68
2022-10-11T16:33:46.631Z,10.63
2022-10-11T16:36:34.293Z,13.95
2022-10-11T16:39:05.397Z,15.10
2022-10-11T16:41:33.846Z,16.25
2022-10-11T16:44:02.511Z,9.68
2022-10-11T16:46:33.020Z,14.30
2022-10-11T16:49:01.539Z,15.38
2022-10-11T16:51:30.266Z,11.50
2022-10-11T16:53:58.981Z,13.38
2022-10-11T16:56:27.729Z,11.35
2022-10-11T16:58:59.482Z,10.88
2022-10-11T17:01:28.152Z,12.05
2022-10-11T17:03:58.331Z,11.25
2022-10-11T17:06:27.150Z,18.38
2022-10-11T17:08:56.350Z,12.35
2022-10-11T17:11:25.353Z,11.73
2022-10-11T17:13:54.512Z,12.02
2022-10-11T17:16:24.027Z,10.73
2022-10-11T17:18:52.514Z,14.10
2022-10-11T17:21:23.170Z,13.02
2022-10-11T17:23:51.653Z,13.68
2022-10-11T17:26:21.854Z,18.42
2022-10-11T17:28:50.672Z,10.88
2022-10-11T17:31:19.652Z,8.65
2022-10-11T17:33:48.459Z,6.80
2022-10-11T17:36:22.531Z,10.73
2022-10-11T17:38:52.092Z,13.05
2022-10-11T17:41:21.518Z,9.85
2022-10-11T17:43:49.963Z,12.60
2022-10-11T17:46:19.259Z,9.95
2022-10-11T17:48:47.761Z,11.82
2022-10-11T17:51:18.069Z,8.07
2022-10-11T17:53:50.550Z,8.73
2022-10-11T17:56:26.736Z,10.88
2022-10-11T17:58:58.249Z,11.93
2022-10-11T18:01:30.220Z,13.60
2022-10-11T18:04:01.179Z,10.85
2022-10-11T18:06:31.568Z,8.95
2022-10-11T18:09:04.123Z,8.68
2022-10-11T18:11:32.794Z,8.18
2022-10-11T18:14:01.734Z,8.15
2022-10-11T18:16:31.807Z,9.20
2022-10-11T18:19:00.894Z,11.45
2022-10-11T18:21:34.369Z,13.20
2022-10-11T18:24:07.877Z,10.52
2022-10-11T18:26:36.352Z,12.50
2022-10-11T18:29:05.910Z,11.13
2022-10-11T18:31:36.006Z,6.97
2022-10-11T18:34:05.985Z,14.00
2022-10-11T18:36:35.127Z,12.43
2022-10-11T18:39:09.106Z,13.10
2022-10-11T18:41:40.140Z,11.00
2022-10-11T18:44:11.048Z,14.57
2022-10-11T18:46:39.557Z,14.32
2022-10-11T18:49:08.766Z,10.63
2022-10-11T18:51:39.165Z,10.70
2022-10-11T18:54:14.012Z,8.57
2022-10-11T18:56:45.488Z,11.88
2022-10-11T18:59:14.077Z,10.73
2022-10-11T19:01:44.595Z,8.77
2022-10-11T19:04:16.991Z,10.38
2022-10-11T19:06:48.097Z,11.48
2022-10-11T19:09:22.330Z,12.25
2022-10-11T19:11:51.294Z,10.02
2022-10-11T19:14:22.939Z,10.50
2022-10-11T19:16:52.771Z,11.07
2022-10-11T19:19:22.838Z,13.57
2022-10-11T19:21:51.728Z,9.23
2022-10-11T19:24:23.582Z,10.63
2022-10-11T19:26:57.233Z,9.40
2022-10-11T19:29:29.386Z,9.55
2022-10-11T19:31:59.783Z,14.88
2022-10-11T19:34:31.524Z,12.32
2022-10-11T19:37:01.345Z,18.08
2022-10-11T19:39:31.613Z,11.75
2022-10-11T19:42:00.401Z,14.50
2022-10-11T19:44:28.809Z,12.95
2022-10-11T19:47:01.452Z,11.07
2022-10-11T19:49:32.894Z,12.13
2022-10-11T19:52:01.996Z,14.82
2022-10-11T19:54:32.094Z,11.93
2022-10-11T19:57:00.522Z,13.90
2022-10-11T19:59:29.149Z,8.50
2022-10-11T20:01:57.558Z,16.25
2022-10-11T20:07:14.628Z,13.73
2022-10-11T20:09:44.614Z,13.82
2022-10-11T20:12:13.066Z,10.70
2022-10-11T20:14:41.701Z,14.60
2022-10-11T20:17:10.196Z,10.50
2022-10-11T20:19:39.026Z,14.52
2022-10-11T20:22:07.939Z,11.50
2022-10-11T20:24:36.419Z,11.00
2022-10-11T20:27:07.542Z,10.85
2022-10-11T20:29:35.987Z,12.45
2022-10-11T20:32:04.805Z,18.50
2022-10-11T20:34:33.464Z,12.40
2022-10-11T20:37:01.863Z,18.15
2022-10-11T20:39:30.592Z,12.07
2022-10-11T20:41:59.433Z,10.57
2022-10-11T20:44:29.376Z,12.43
2022-10-11T20:47:03.009Z,16.17
2022-10-11T20:49:32.413Z,10.60
2022-10-11T20:52:00.852Z,11.50
2022-10-11T20:54:30.739Z,10.15
2022-10-11T20:56:59.348Z,11.63
2022-10-11T20:59:29.225Z,11.00
2022-10-11T21:01:57.692Z,10.05
2022-10-11T21:04:26.515Z,9.20
2022-10-11T21:06:54.955Z,14.23
2022-10-11T21:09:23.538Z,11.10
2022-10-11T21:11:52.082Z,14.65
2022-10-11T21:14:20.492Z,12.93
2022-10-11T21:16:50.336Z,14.07
2022-10-11T21:19:18.819Z,14.00
2022-10-11T21:21:52.689Z,13.05
2022-10-11T21:24:22.745Z,12.38
2022-10-11T21:26:51.226Z,13.85
2022-10-11T21:29:19.694Z,13.80
2022-10-11T21:31:49.906Z,19.25
2022-10-11T21:34:18.535Z,16.40
2022-10-11T21:36:46.988Z,19.90
2022-10-11T21:39:15.485Z,16.75
2022-10-11T21:41:43.931Z,21.73
2022-10-11T21:44:12.365Z,20.73
2022-10-11T21:49:30.797Z,17.75
2022-10-11T21:51:59.414Z,17.35
2022-10-11T21:54:27.888Z,16.67
2022-10-11T21:56:56.311Z,18.70
2022-10-11T21:59:24.781Z,27.40
2022-10-11T22:01:55.045Z,21.95
2022-10-11T22:04:27.090Z,20.67
2022-10-11T22:06:56.917Z,23.15
2022-10-11T22:09:25.575Z,17.17
2022-10-11T22:11:54.051Z,21.85
2022-10-11T22:14:22.524Z,23.00
2022-10-11T22:16:50.935Z,19.30
2022-10-11T22:19:19.497Z,13.82
2022-10-11T22:21:47.941Z,18.13
2022-10-11T22:24:17.829Z,19.90
2022-10-11T22:26:46.334Z,18.08
2022-10-11T22:29:14.757Z,17.02
2022-10-11T22:31:43.522Z,14.95
2022-10-11T22:34:12.190Z,17.80
2022-10-11T22:36:40.584Z,13.32
2022-10-11T22:39:10.223Z,17.05
2022-10-11T22:41:40.133Z,14.02
2022-10-11T22:44:08.665Z,12.93
2022-10-11T22:46:37.519Z,16.60
2022-10-11T22:49:06.217Z,11.20
2022-10-11T22:51:34.746Z,13.40
2022-10-11T22:54:03.152Z,16.02
2022-10-11T22:56:31.655Z,15.40
2022-10-11T22:59:01.539Z,22.52
2022-10-11T23:01:29.979Z,15.57
2022-10-11T23:03:58.480Z,15.90
2022-10-11T23:06:27.261Z,15.13
2022-10-11T23:08:55.982Z,18.27
2022-10-11T23:11:24.608Z,23.05
2022-10-11T23:13:53.008Z,18.95
2022-10-11T23:16:22.794Z,26.65
2022-10-11T23:18:53.661Z,25.45
2022-10-11T23:21:22.619Z,24.67
2022-10-11T23:23:53.468Z,29.58
2022-10-11T23:26:22.283Z,22.42
2022-10-11T23:28:55.601Z,28.45
2022-10-11T23:31:25.420Z,24.48
2022-10-11T23:33:54.850Z,23.98
2022-10-11T23:36:25.556Z,20.92
2022-10-11T23:38:55.575Z,21.05
2022-10-11T23:41:25.422Z,17.42
2022-10-11T23:43:54.067Z,23.92
2022-10-11T23:46:22.784Z,17.60
2022-10-11T23:48:52.645Z,19.42
2022-10-11T23:51:21.302Z,17.73
2022-10-11T23:53:50.432Z,18.50
2022-10-11T23:56:18.874Z,19.88
2022-10-11T23:58:47.321Z,21.23
